Columbus, Ohio
Traffic Map
Current Weather Conditions
Columbus, Ohio
Overcast
Overcast
51°
Feels Like: 51°
Wind Chill: 51° Ceiling: 4100
Heat Index: 51° Visibility: 10mi
Dew Point: 43° Wind: 14mph
Humidity: 74% Direction: 290° (WNW)
Pressure: 29.63in Gusts: 0mph
Raw Report DataKCMH 042051Z 29012KT 10SM FEW032 BKN041 OVC060 11/06 A2963 RMK AO2 RAB1954E15 SLP036 VCSH SW-W P0000 60000 T01060061 53003
Traffic Incident Summary
Active as of:
Severity:
Category:
InformationThere was an issue retrieving the traffic information for this location. Please try a different location or try again shortly.
Advertisements
Track Severe Weather on mobile